sensor_id;sensor_type;location;lat;lon;timestamp;P1;durP1;ratioP1;P2;durP2;ratioP2
29838;SDS011;18669;53.356;-1.464;2023-01-19T00:00:49;5.70;;;1.67;;
29838;SDS011;18669;53.356;-1.464;2023-01-19T00:03:15;4.90;;;1.83;;
29838;SDS011;18669;53.356;-1.464;2023-01-19T00:05:42;3.63;;;2.00;;
29838;SDS011;18669;53.356;-1.464;2023-01-19T00:08:09;4.68;;;1.80;;
29838;SDS011;18669;53.356;-1.464;2023-01-19T00:10:40;3.80;;;1.80;;
29838;SDS011;18669;53.356;-1.464;2023-01-19T00:13:18;12.23;;;1.90;;
29838;SDS011;18669;53.356;-1.464;2023-01-19T00:15:50;4.20;;;1.98;;
29838;SDS011;18669;53.356;-1.464;2023-01-19T00:18:16;3.38;;;1.92;;
29838;SDS011;18669;53.356;-1.464;2023-01-19T00:20:46;5.65;;;1.80;;
29838;SDS011;18669;53.356;-1.464;2023-01-19T00:23:13;2.67;;;1.50;;
29838;SDS011;18669;53.356;-1.464;2023-01-19T00:25:41;5.38;;;1.83;;
29838;SDS011;18669;53.356;-1.464;2023-01-19T00:28:08;2.88;;;1.70;;
29838;SDS011;18669;53.356;-1.464;2023-01-19T00:30:37;5.20;;;1.88;;
29838;SDS011;18669;53.356;-1.464;2023-01-19T00:33:03;3.97;;;2.15;;
29838;SDS011;18669;53.356;-1.464;2023-01-19T00:37:56;7.45;;;1.83;;
29838;SDS011;18669;53.356;-1.464;2023-01-19T00:40:23;2.20;;;1.55;;
29838;SDS011;18669;53.356;-1.464;2023-01-19T00:42:49;4.53;;;1.30;;
29838;SDS011;18669;53.356;-1.464;2023-01-19T00:45:16;4.53;;;1.55;;
29838;SDS011;18669;53.356;-1.464;2023-01-19T00:47:44;2.67;;;1.50;;
29838;SDS011;18669;53.356;-1.464;2023-01-19T00:50:11;4.90;;;1.48;;
29838;SDS011;18669;53.356;-1.464;2023-01-19T00:52:39;7.55;;;1.92;;
29838;SDS011;18669;53.356;-1.464;2023-01-19T00:55:06;2.20;;;1.35;;
29838;SDS011;18669;53.356;-1.464;2023-01-19T00:57:35;2.83;;;1.40;;
29838;SDS011;18669;53.356;-1.464;2023-01-19T01:02:32;2.70;;;1.50;;
29838;SDS011;18669;53.356;-1.464;2023-01-19T01:07:27;3.67;;;1.10;;
29838;SDS011;18669;53.356;-1.464;2023-01-19T01:09:57;2.78;;;1.27;;
29838;SDS011;18669;53.356;-1.464;2023-01-19T01:12:24;3.15;;;1.52;;
29838;SDS011;18669;53.356;-1.464;2023-01-19T01:14:50;2.75;;;1.55;;
29838;SDS011;18669;53.356;-1.464;2023-01-19T01:17:18;1.92;;;1.25;;
29838;SDS011;18669;53.356;-1.464;2023-01-19T01:19:49;2.75;;;1.20;;
29838;SDS011;18669;53.356;-1.464;2023-01-19T01:22:16;3.30;;;1.52;;
29838;SDS011;18669;53.356;-1.464;2023-01-19T01:24:42;2.35;;;1.30;;
29838;SDS011;18669;53.356;-1.464;2023-01-19T01:27:09;5.70;;;1.58;;
29838;SDS011;18669;53.356;-1.464;2023-01-19T01:29:35;2.10;;;1.40;;
29838;SDS011;18669;53.356;-1.464;2023-01-19T01:32:01;3.50;;;1.35;;
29838;SDS011;18669;53.356;-1.464;2023-01-19T01:34:27;7.38;;;1.58;;
29838;SDS011;18669;53.356;-1.464;2023-01-19T01:36:53;2.70;;;1.20;;
29838;SDS011;18669;53.356;-1.464;2023-01-19T01:39:19;2.55;;;1.10;;
29838;SDS011;18669;53.356;-1.464;2023-01-19T01:41:47;2.95;;;1.25;;
29838;SDS011;18669;53.356;-1.464;2023-01-19T01:47:15;4.38;;;1.40;;
29838;SDS011;18669;53.356;-1.464;2023-01-19T01:49:45;6.90;;;1.50;;
29838;SDS011;18669;53.356;-1.464;2023-01-19T01:52:13;8.73;;;1.60;;
29838;SDS011;18669;53.356;-1.464;2023-01-19T01:54:41;4.90;;;1.70;;
29838;SDS011;18669;53.356;-1.464;2023-01-19T01:57:09;2.38;;;1.33;;
29838;SDS011;18669;53.356;-1.464;2023-01-19T01:59:39;6.40;;;1.48;;
29838;SDS011;18669;53.356;-1.464;2023-01-19T02:02:09;1.65;;;1.30;;
29838;SDS011;18669;53.356;-1.464;2023-01-19T02:05:00;2.58;;;1.20;;
29838;SDS011;18669;53.356;-1.464;2023-01-19T02:07:53;4.95;;;1.52;;
29838;SDS011;18669;53.356;-1.464;2023-01-19T02:10:41;2.30;;;1.40;;
29838;SDS011;18669;53.356;-1.464;2023-01-19T02:13:30;4.28;;;1.40;;
29838;SDS011;18669;53.356;-1.464;2023-01-19T02:16:01;5.20;;;1.63;;
29838;SDS011;18669;53.356;-1.464;2023-01-19T02:18:31;3.92;;;1.30;;
29838;SDS011;18669;53.356;-1.464;2023-01-19T02:23:50;3.20;;;1.52;;
29838;SDS011;18669;53.356;-1.464;2023-01-19T02:26:19;4.93;;;1.90;;
29838;SDS011;18669;53.356;-1.464;2023-01-19T02:28:55;6.72;;;1.92;;
29838;SDS011;18669;53.356;-1.464;2023-01-19T02:31:27;6.15;;;1.80;;
29838;SDS011;18669;53.356;-1.464;2023-01-19T02:33:56;3.65;;;1.48;;
29838;SDS011;18669;53.356;-1.464;2023-01-19T02:36:26;1.98;;;1.40;;
29838;SDS011;18669;53.356;-1.464;2023-01-19T02:38:57;3.50;;;1.63;;
29838;SDS011;18669;53.356;-1.464;2023-01-19T02:41:25;5.50;;;1.73;;
29838;SDS011;18669;53.356;-1.464;2023-01-19T02:43:56;6.57;;;2.13;;
29838;SDS011;18669;53.356;-1.464;2023-01-19T02:46:23;7.90;;;2.25;;
29838;SDS011;18669;53.356;-1.464;2023-01-19T02:48:49;5.55;;;2.10;;
29838;SDS011;18669;53.356;-1.464;2023-01-19T02:51:16;3.22;;;1.92;;
29838;SDS011;18669;53.356;-1.464;2023-01-19T03:10:04;9.88;;;2.35;;
29838;SDS011;18669;53.356;-1.464;2023-01-19T03:12:59;4.22;;;1.95;;
29838;SDS011;18669;53.356;-1.464;2023-01-19T03:18:05;10.32;;;2.05;;
29838;SDS011;18669;53.356;-1.464;2023-01-19T03:20:35;4.45;;;1.95;;
29838;SDS011;18669;53.356;-1.464;2023-01-19T03:23:05;8.02;;;2.15;;
29838;SDS011;18669;53.356;-1.464;2023-01-19T03:25:35;4.68;;;1.73;;
29838;SDS011;18669;53.356;-1.464;2023-01-19T03:28:05;9.35;;;2.50;;
29838;SDS011;18669;53.356;-1.464;2023-01-19T03:30:33;4.20;;;2.03;;
29838;SDS011;18669;53.356;-1.464;2023-01-19T03:33:22;4.70;;;1.85;;
29838;SDS011;18669;53.356;-1.464;2023-01-19T03:35:53;5.28;;;1.90;;
29838;SDS011;18669;53.356;-1.464;2023-01-19T03:38:28;8.45;;;2.38;;
29838;SDS011;18669;53.356;-1.464;2023-01-19T03:41:01;2.78;;;1.92;;
29838;SDS011;18669;53.356;-1.464;2023-01-19T03:43:33;6.90;;;2.17;;
29838;SDS011;18669;53.356;-1.464;2023-01-19T03:46:05;4.47;;;2.15;;
29838;SDS011;18669;53.356;-1.464;2023-01-19T03:48:34;5.07;;;1.80;;
29838;SDS011;18669;53.356;-1.464;2023-01-19T03:51:08;2.90;;;1.95;;
29838;SDS011;18669;53.356;-1.464;2023-01-19T03:53:35;3.17;;;1.98;;
29838;SDS011;18669;53.356;-1.464;2023-01-19T03:56:01;4.68;;;2.55;;
29838;SDS011;18669;53.356;-1.464;2023-01-19T03:58:28;5.00;;;2.10;;
29838;SDS011;18669;53.356;-1.464;2023-01-19T04:00:54;6.78;;;2.75;;
29838;SDS011;18669;53.356;-1.464;2023-01-19T04:03:21;8.55;;;2.60;;
29838;SDS011;18669;53.356;-1.464;2023-01-19T04:08:14;8.68;;;2.38;;
29838;SDS011;18669;53.356;-1.464;2023-01-19T04:10:40;5.53;;;2.30;;
29838;SDS011;18669;53.356;-1.464;2023-01-19T04:13:06;3.10;;;2.20;;
29838;SDS011;18669;53.356;-1.464;2023-01-19T04:15:32;7.95;;;2.10;;
29838;SDS011;18669;53.356;-1.464;2023-01-19T04:17:58;8.38;;;2.60;;
29838;SDS011;18669;53.356;-1.464;2023-01-19T04:20:26;5.43;;;2.55;;
29838;SDS011;18669;53.356;-1.464;2023-01-19T04:22:53;4.80;;;2.17;;
29838;SDS011;18669;53.356;-1.464;2023-01-19T04:25:20;6.57;;;2.40;;
29838;SDS011;18669;53.356;-1.464;2023-01-19T04:27:50;3.65;;;2.15;;
29838;SDS011;18669;53.356;-1.464;2023-01-19T04:30:17;5.53;;;2.58;;
29838;SDS011;18669;53.356;-1.464;2023-01-19T04:32:44;12.75;;;2.40;;
29838;SDS011;18669;53.356;-1.464;2023-01-19T04:35:10;5.20;;;2.83;;
29838;SDS011;18669;53.356;-1.464;2023-01-19T04:37:36;10.93;;;2.47;;
29838;SDS011;18669;53.356;-1.464;2023-01-19T04:40:02;5.05;;;2.38;;
29838;SDS011;18669;53.356;-1.464;2023-01-19T04:42:29;7.15;;;2.50;;
29838;SDS011;18669;53.356;-1.464;2023-01-19T04:44:55;4.68;;;2.78;;
29838;SDS011;18669;53.356;-1.464;2023-01-19T04:47:21;4.45;;;2.58;;
29838;SDS011;18669;53.356;-1.464;2023-01-19T04:49:47;5.90;;;2.72;;
29838;SDS011;18669;53.356;-1.464;2023-01-19T04:52:13;11.18;;;3.45;;
29838;SDS011;18669;53.356;-1.464;2023-01-19T04:54:39;7.93;;;2.80;;
29838;SDS011;18669;53.356;-1.464;2023-01-19T04:57:05;6.88;;;3.00;;
29838;SDS011;18669;53.356;-1.464;2023-01-19T04:59:31;8.00;;;2.95;;
29838;SDS011;18669;53.356;-1.464;2023-01-19T05:01:57;10.63;;;3.20;;
29838;SDS011;18669;53.356;-1.464;2023-01-19T05:04:23;6.40;;;3.47;;
29838;SDS011;18669;53.356;-1.464;2023-01-19T05:06:50;7.72;;;3.80;;
29838;SDS011;18669;53.356;-1.464;2023-01-19T05:11:42;6.00;;;3.33;;
29838;SDS011;18669;53.356;-1.464;2023-01-19T05:14:08;10.02;;;3.47;;
29838;SDS011;18669;53.356;-1.464;2023-01-19T05:16:36;8.65;;;3.80;;
29838;SDS011;18669;53.356;-1.464;2023-01-19T05:19:02;10.50;;;3.85;;
29838;SDS011;18669;53.356;-1.464;2023-01-19T05:21:28;8.20;;;4.15;;
29838;SDS011;18669;53.356;-1.464;2023-01-19T05:23:55;11.52;;;4.00;;
29838;SDS011;18669;53.356;-1.464;2023-01-19T05:26:22;10.25;;;4.13;;
29838;SDS011;18669;53.356;-1.464;2023-01-19T05:28:48;9.77;;;3.80;;
29838;SDS011;18669;53.356;-1.464;2023-01-19T05:31:15;7.97;;;3.42;;
29838;SDS011;18669;53.356;-1.464;2023-01-19T05:33:41;9.13;;;3.67;;
29838;SDS011;18669;53.356;-1.464;2023-01-19T05:36:07;10.80;;;3.40;;
29838;SDS011;18669;53.356;-1.464;2023-01-19T05:40:59;9.75;;;3.58;;
29838;SDS011;18669;53.356;-1.464;2023-01-19T05:43:26;8.15;;;4.13;;
29838;SDS011;18669;53.356;-1.464;2023-01-19T05:45:52;12.40;;;4.30;;
29838;SDS011;18669;53.356;-1.464;2023-01-19T05:48:18;9.75;;;4.13;;
29838;SDS011;18669;53.356;-1.464;2023-01-19T05:50:45;15.52;;;4.25;;
29838;SDS011;18669;53.356;-1.464;2023-01-19T05:53:13;10.07;;;4.10;;
29838;SDS011;18669;53.356;-1.464;2023-01-19T05:58:05;15.95;;;4.30;;
29838;SDS011;18669;53.356;-1.464;2023-01-19T06:00:31;10.07;;;4.78;;
29838;SDS011;18669;53.356;-1.464;2023-01-19T06:02:57;8.80;;;4.60;;
29838;SDS011;18669;53.356;-1.464;2023-01-19T06:05:25;11.10;;;4.32;;
29838;SDS011;18669;53.356;-1.464;2023-01-19T06:07:51;14.30;;;5.75;;
29838;SDS011;18669;53.356;-1.464;2023-01-19T06:10:21;8.07;;;4.70;;
29838;SDS011;18669;53.356;-1.464;2023-01-19T06:12:48;7.53;;;4.60;;
29838;SDS011;18669;53.356;-1.464;2023-01-19T06:15:14;10.88;;;5.07;;
29838;SDS011;18669;53.356;-1.464;2023-01-19T06:17:40;7.15;;;4.78;;
29838;SDS011;18669;53.356;-1.464;2023-01-19T06:20:07;13.77;;;5.35;;
29838;SDS011;18669;53.356;-1.464;2023-01-19T06:22:34;12.30;;;5.65;;
29838;SDS011;18669;53.356;-1.464;2023-01-19T06:25:01;7.65;;;5.07;;
29838;SDS011;18669;53.356;-1.464;2023-01-19T06:29:53;11.70;;;4.90;;
29838;SDS011;18669;53.356;-1.464;2023-01-19T06:32:19;15.63;;;5.47;;
29838;SDS011;18669;53.356;-1.464;2023-01-19T06:34:45;10.13;;;5.70;;
29838;SDS011;18669;53.356;-1.464;2023-01-19T06:37:12;11.40;;;5.35;;
29838;SDS011;18669;53.356;-1.464;2023-01-19T06:39:40;10.05;;;5.20;;
29838;SDS011;18669;53.356;-1.464;2023-01-19T06:42:07;7.55;;;5.18;;
29838;SDS011;18669;53.356;-1.464;2023-01-19T06:44:33;13.55;;;6.30;;
29838;SDS011;18669;53.356;-1.464;2023-01-19T06:46:59;8.50;;;5.68;;
29838;SDS011;18669;53.356;-1.464;2023-01-19T06:49:26;11.30;;;5.85;;
29838;SDS011;18669;53.356;-1.464;2023-01-19T06:51:52;14.35;;;5.50;;
29838;SDS011;18669;53.356;-1.464;2023-01-19T06:54:18;13.38;;;5.53;;
29838;SDS011;18669;53.356;-1.464;2023-01-19T06:56:45;8.23;;;5.18;;
29838;SDS011;18669;53.356;-1.464;2023-01-19T06:59:11;7.38;;;4.55;;
29838;SDS011;18669;53.356;-1.464;2023-01-19T07:01:37;7.82;;;4.72;;
29838;SDS011;18669;53.356;-1.464;2023-01-19T07:06:30;12.20;;;5.07;;
29838;SDS011;18669;53.356;-1.464;2023-01-19T07:08:56;10.40;;;5.15;;
29838;SDS011;18669;53.356;-1.464;2023-01-19T07:11:24;12.05;;;4.95;;
29838;SDS011;18669;53.356;-1.464;2023-01-19T07:13:52;10.48;;;5.28;;
29838;SDS011;18669;53.356;-1.464;2023-01-19T07:16:22;7.65;;;5.28;;
29838;SDS011;18669;53.356;-1.464;2023-01-19T07:18:49;7.65;;;5.15;;
29838;SDS011;18669;53.356;-1.464;2023-01-19T07:21:15;9.07;;;5.63;;
29838;SDS011;18669;53.356;-1.464;2023-01-19T07:23:42;9.35;;;5.88;;
29838;SDS011;18669;53.356;-1.464;2023-01-19T07:26:09;13.82;;;5.32;;
29838;SDS011;18669;53.356;-1.464;2023-01-19T07:28:35;9.45;;;5.32;;
29838;SDS011;18669;53.356;-1.464;2023-01-19T07:31:02;8.45;;;5.40;;
29838;SDS011;18669;53.356;-1.464;2023-01-19T07:33:28;7.75;;;6.10;;
29838;SDS011;18669;53.356;-1.464;2023-01-19T07:35:54;12.35;;;6.53;;
29838;SDS011;18669;53.356;-1.464;2023-01-19T07:38:21;12.25;;;6.03;;
29838;SDS011;18669;53.356;-1.464;2023-01-19T07:40:48;10.88;;;6.90;;
29838;SDS011;18669;53.356;-1.464;2023-01-19T07:43:14;8.05;;;5.55;;
29838;SDS011;18669;53.356;-1.464;2023-01-19T07:45:41;12.02;;;6.55;;
29838;SDS011;18669;53.356;-1.464;2023-01-19T07:48:07;10.55;;;6.28;;
29838;SDS011;18669;53.356;-1.464;2023-01-19T07:50:34;12.27;;;6.28;;
29838;SDS011;18669;53.356;-1.464;2023-01-19T07:53:03;11.65;;;6.97;;
29838;SDS011;18669;53.356;-1.464;2023-01-19T07:55:30;10.02;;;6.63;;
29838;SDS011;18669;53.356;-1.464;2023-01-19T07:57:57;10.63;;;7.00;;
29838;SDS011;18669;53.356;-1.464;2023-01-19T08:00:24;11.02;;;6.82;;
29838;SDS011;18669;53.356;-1.464;2023-01-19T08:02:50;9.45;;;6.22;;
29838;SDS011;18669;53.356;-1.464;2023-01-19T08:05:17;11.15;;;6.68;;
29838;SDS011;18669;53.356;-1.464;2023-01-19T08:07:44;15.80;;;6.95;;
29838;SDS011;18669;53.356;-1.464;2023-01-19T08:10:11;14.68;;;6.05;;
29838;SDS011;18669;53.356;-1.464;2023-01-19T08:12:39;10.05;;;7.18;;
29838;SDS011;18669;53.356;-1.464;2023-01-19T08:15:07;13.18;;;6.80;;
29838;SDS011;18669;53.356;-1.464;2023-01-19T08:17:34;14.65;;;7.68;;
29838;SDS011;18669;53.356;-1.464;2023-01-19T08:20:00;13.88;;;7.53;;
29838;SDS011;18669;53.356;-1.464;2023-01-19T08:22:26;10.77;;;6.95;;
29838;SDS011;18669;53.356;-1.464;2023-01-19T08:24:52;10.02;;;6.72;;
29838;SDS011;18669;53.356;-1.464;2023-01-19T08:27:19;12.55;;;7.30;;
29838;SDS011;18669;53.356;-1.464;2023-01-19T08:29:49;10.20;;;6.93;;
29838;SDS011;18669;53.356;-1.464;2023-01-19T08:32:18;11.45;;;7.18;;
29838;SDS011;18669;53.356;-1.464;2023-01-19T08:34:44;13.93;;;7.47;;
29838;SDS011;18669;53.356;-1.464;2023-01-19T08:37:11;12.73;;;6.90;;
29838;SDS011;18669;53.356;-1.464;2023-01-19T08:39:37;10.43;;;6.30;;
29838;SDS011;18669;53.356;-1.464;2023-01-19T08:42:03;10.68;;;6.40;;
29838;SDS011;18669;53.356;-1.464;2023-01-19T08:44:32;6.38;;;4.65;;
29838;SDS011;18669;53.356;-1.464;2023-01-19T08:47:01;8.77;;;5.75;;
29838;SDS011;18669;53.356;-1.464;2023-01-19T08:49:27;11.27;;;3.70;;
29838;SDS011;18669;53.356;-1.464;2023-01-19T08:51:53;5.03;;;2.83;;
29838;SDS011;18669;53.356;-1.464;2023-01-19T08:54:19;5.70;;;3.55;;
29838;SDS011;18669;53.356;-1.464;2023-01-19T08:56:46;4.80;;;2.85;;
29838;SDS011;18669;53.356;-1.464;2023-01-19T08:59:12;4.63;;;3.28;;
29838;SDS011;18669;53.356;-1.464;2023-01-19T09:01:38;6.05;;;3.63;;
29838;SDS011;18669;53.356;-1.464;2023-01-19T09:04:05;6.10;;;3.47;;
29838;SDS011;18669;53.356;-1.464;2023-01-19T09:06:32;6.82;;;3.53;;
29838;SDS011;18669;53.356;-1.464;2023-01-19T09:08:59;5.70;;;3.78;;
29838;SDS011;18669;53.356;-1.464;2023-01-19T09:11:25;7.55;;;3.80;;
29838;SDS011;18669;53.356;-1.464;2023-01-19T09:13:52;6.97;;;4.20;;
29838;SDS011;18669;53.356;-1.464;2023-01-19T09:16:18;5.13;;;3.60;;
29838;SDS011;18669;53.356;-1.464;2023-01-19T09:18:44;8.77;;;4.25;;
29838;SDS011;18669;53.356;-1.464;2023-01-19T09:21:10;5.85;;;3.58;;
29838;SDS011;18669;53.356;-1.464;2023-01-19T09:23:36;5.40;;;3.60;;
29838;SDS011;18669;53.356;-1.464;2023-01-19T09:26:04;4.15;;;3.58;;
29838;SDS011;18669;53.356;-1.464;2023-01-19T09:28:31;8.20;;;3.90;;
29838;SDS011;18669;53.356;-1.464;2023-01-19T09:30:58;6.38;;;4.35;;
29838;SDS011;18669;53.356;-1.464;2023-01-19T09:33:24;6.32;;;4.30;;
29838;SDS011;18669;53.356;-1.464;2023-01-19T09:40:46;6.30;;;4.07;;
29838;SDS011;18669;53.356;-1.464;2023-01-19T09:43:33;7.97;;;4.93;;
29838;SDS011;18669;53.356;-1.464;2023-01-19T09:46:00;7.50;;;4.05;;
29838;SDS011;18669;53.356;-1.464;2023-01-19T09:51:06;7.30;;;4.85;;
29838;SDS011;18669;53.356;-1.464;2023-01-19T09:56:43;7.47;;;4.63;;
29838;SDS011;18669;53.356;-1.464;2023-01-19T09:59:24;8.10;;;4.90;;
29838;SDS011;18669;53.356;-1.464;2023-01-19T10:01:58;8.00;;;4.35;;
29838;SDS011;18669;53.356;-1.464;2023-01-19T10:04:57;9.18;;;4.63;;
29838;SDS011;18669;53.356;-1.464;2023-01-19T10:10:31;6.28;;;4.55;;
29838;SDS011;18669;53.356;-1.464;2023-01-19T10:20:50;9.38;;;4.50;;
29838;SDS011;18669;53.356;-1.464;2023-01-19T10:23:40;9.27;;;4.68;;
29838;SDS011;18669;53.356;-1.464;2023-01-19T10:26:23;14.10;;;4.68;;
29838;SDS011;18669;53.356;-1.464;2023-01-19T10:28:54;11.93;;;4.38;;
29838;SDS011;18669;53.356;-1.464;2023-01-19T10:31:26;5.60;;;3.28;;
29838;SDS011;18669;53.356;-1.464;2023-01-19T10:33:52;8.60;;;2.90;;
29838;SDS011;18669;53.356;-1.464;2023-01-19T10:36:20;5.63;;;3.00;;
29838;SDS011;18669;53.356;-1.464;2023-01-19T10:38:51;7.97;;;4.22;;
29838;SDS011;18669;53.356;-1.464;2023-01-19T10:41:19;4.72;;;2.78;;
29838;SDS011;18669;53.356;-1.464;2023-01-19T10:43:57;5.68;;;3.28;;
29838;SDS011;18669;53.356;-1.464;2023-01-19T10:46:33;8.55;;;3.55;;
29838;SDS011;18669;53.356;-1.464;2023-01-19T10:49:17;4.93;;;3.15;;
29838;SDS011;18669;53.356;-1.464;2023-01-19T10:51:56;13.75;;;3.75;;
29838;SDS011;18669;53.356;-1.464;2023-01-19T10:54:25;5.10;;;3.38;;
29838;SDS011;18669;53.356;-1.464;2023-01-19T10:56:56;10.02;;;3.38;;
29838;SDS011;18669;53.356;-1.464;2023-01-19T11:02:11;6.82;;;3.22;;
29838;SDS011;18669;53.356;-1.464;2023-01-19T11:04:55;5.57;;;3.20;;
29838;SDS011;18669;53.356;-1.464;2023-01-19T11:07:32;9.40;;;3.28;;
29838;SDS011;18669;53.356;-1.464;2023-01-19T11:12:39;7.20;;;3.42;;
29838;SDS011;18669;53.356;-1.464;2023-01-19T11:15:54;4.47;;;2.25;;
29838;SDS011;18669;53.356;-1.464;2023-01-19T11:18:23;4.57;;;2.55;;
29838;SDS011;18669;53.356;-1.464;2023-01-19T11:20:52;5.55;;;2.40;;
29838;SDS011;18669;53.356;-1.464;2023-01-19T11:23:37;6.28;;;3.38;;
29838;SDS011;18669;53.356;-1.464;2023-01-19T11:26:24;7.38;;;3.47;;
29838;SDS011;18669;53.356;-1.464;2023-01-19T11:28:53;7.60;;;2.72;;
29838;SDS011;18669;53.356;-1.464;2023-01-19T11:34:04;9.15;;;2.53;;
29838;SDS011;18669;53.356;-1.464;2023-01-19T11:36:53;3.38;;;2.38;;
29838;SDS011;18669;53.356;-1.464;2023-01-19T11:39:26;5.47;;;2.33;;
29838;SDS011;18669;53.356;-1.464;2023-01-19T11:41:54;3.70;;;2.28;;
29838;SDS011;18669;53.356;-1.464;2023-01-19T11:44:24;4.40;;;2.55;;
29838;SDS011;18669;53.356;-1.464;2023-01-19T11:46:57;3.25;;;2.40;;
29838;SDS011;18669;53.356;-1.464;2023-01-19T11:49:37;9.82;;;2.35;;
29838;SDS011;18669;53.356;-1.464;2023-01-19T11:52:26;5.53;;;2.25;;
29838;SDS011;18669;53.356;-1.464;2023-01-19T11:55:17;6.68;;;2.40;;
29838;SDS011;18669;53.356;-1.464;2023-01-19T11:57:45;4.68;;;2.70;;
29838;SDS011;18669;53.356;-1.464;2023-01-19T12:00:24;7.60;;;2.67;;
29838;SDS011;18669;53.356;-1.464;2023-01-19T12:05:33;6.43;;;2.50;;
29838;SDS011;18669;53.356;-1.464;2023-01-19T12:08:04;5.63;;;2.85;;
29838;SDS011;18669;53.356;-1.464;2023-01-19T12:10:37;3.40;;;1.85;;
29838;SDS011;18669;53.356;-1.464;2023-01-19T12:13:26;5.53;;;2.05;;
29838;SDS011;18669;53.356;-1.464;2023-01-19T12:15:59;5.47;;;1.80;;
29838;SDS011;18669;53.356;-1.464;2023-01-19T12:18:34;2.47;;;1.42;;
29838;SDS011;18669;53.356;-1.464;2023-01-19T12:21:04;2.40;;;1.60;;
29838;SDS011;18669;53.356;-1.464;2023-01-19T12:28:58;3.08;;;1.90;;
29838;SDS011;18669;53.356;-1.464;2023-01-19T12:31:28;3.35;;;1.80;;
29838;SDS011;18669;53.356;-1.464;2023-01-19T12:33:54;1.55;;;1.40;;
29838;SDS011;18669;53.356;-1.464;2023-01-19T12:36:49;4.43;;;1.85;;
29838;SDS011;18669;53.356;-1.464;2023-01-19T12:39:18;4.32;;;1.73;;
29838;SDS011;18669;53.356;-1.464;2023-01-19T12:41:45;7.60;;;2.13;;
29838;SDS011;18669;53.356;-1.464;2023-01-19T12:51:51;4.13;;;1.83;;
29838;SDS011;18669;53.356;-1.464;2023-01-19T12:54:38;3.60;;;1.85;;
29838;SDS011;18669;53.356;-1.464;2023-01-19T12:57:14;4.85;;;2.00;;
29838;SDS011;18669;53.356;-1.464;2023-01-19T13:00:05;4.05;;;1.90;;
29838;SDS011;18669;53.356;-1.464;2023-01-19T13:03:41;3.65;;;1.73;;
29838;SDS011;18669;53.356;-1.464;2023-01-19T13:05:52;2.67;;;1.92;;
29838;SDS011;18669;53.356;-1.464;2023-01-19T13:08:24;3.35;;;2.00;;
29838;SDS011;18669;53.356;-1.464;2023-01-19T13:11:15;5.68;;;1.63;;
29838;SDS011;18669;53.356;-1.464;2023-01-19T13:14:28;3.53;;;1.58;;
29838;SDS011;18669;53.356;-1.464;2023-01-19T13:18:57;5.75;;;1.98;;
29838;SDS011;18669;53.356;-1.464;2023-01-19T13:21:41;2.50;;;1.60;;
29838;SDS011;18669;53.356;-1.464;2023-01-19T13:24:10;3.50;;;1.80;;
29838;SDS011;18669;53.356;-1.464;2023-01-19T13:29:33;4.18;;;2.00;;
29838;SDS011;18669;53.356;-1.464;2023-01-19T13:32:11;2.13;;;1.63;;
29838;SDS011;18669;53.356;-1.464;2023-01-19T13:34:46;4.50;;;1.95;;
29838;SDS011;18669;53.356;-1.464;2023-01-19T13:37:22;4.32;;;1.88;;
29838;SDS011;18669;53.356;-1.464;2023-01-19T13:39:52;4.93;;;1.70;;
29838;SDS011;18669;53.356;-1.464;2023-01-19T13:42:27;2.72;;;1.55;;
29838;SDS011;18669;53.356;-1.464;2023-01-19T13:44:58;4.45;;;1.50;;
29838;SDS011;18669;53.356;-1.464;2023-01-19T13:47:44;7.18;;;2.65;;
29838;SDS011;18669;53.356;-1.464;2023-01-19T13:50:19;8.85;;;2.15;;
29838;SDS011;18669;53.356;-1.464;2023-01-19T13:52:47;7.75;;;2.22;;
29838;SDS011;18669;53.356;-1.464;2023-01-19T13:55:16;14.98;;;4.50;;
29838;SDS011;18669;53.356;-1.464;2023-01-19T13:57:43;5.28;;;2.38;;
29838;SDS011;18669;53.356;-1.464;2023-01-19T14:02:37;4.35;;;3.20;;
29838;SDS011;18669;53.356;-1.464;2023-01-19T14:05:23;4.88;;;3.10;;
29838;SDS011;18669;53.356;-1.464;2023-01-19T14:10:38;4.30;;;3.08;;
29838;SDS011;18669;53.356;-1.464;2023-01-19T14:15:46;6.97;;;4.00;;
29838;SDS011;18669;53.356;-1.464;2023-01-19T14:23:49;9.90;;;4.15;;
29838;SDS011;18669;53.356;-1.464;2023-01-19T14:26:40;7.80;;;3.67;;
29838;SDS011;18669;53.356;-1.464;2023-01-19T14:29:28;7.28;;;3.78;;
29838;SDS011;18669;53.356;-1.464;2023-01-19T14:32:11;14.10;;;3.72;;
29838;SDS011;18669;53.356;-1.464;2023-01-19T14:45:14;11.45;;;4.32;;
29838;SDS011;18669;53.356;-1.464;2023-01-19T14:47:44;14.18;;;3.97;;
29838;SDS011;18669;53.356;-1.464;2023-01-19T14:50:20;6.47;;;4.05;;
29838;SDS011;18669;53.356;-1.464;2023-01-19T14:52:56;5.78;;;3.88;;
29838;SDS011;18669;53.356;-1.464;2023-01-19T14:55:36;12.57;;;4.22;;
29838;SDS011;18669;53.356;-1.464;2023-01-19T14:58:13;6.75;;;3.90;;
29838;SDS011;18669;53.356;-1.464;2023-01-19T15:00:41;7.07;;;3.72;;
29838;SDS011;18669;53.356;-1.464;2023-01-19T15:03:08;10.00;;;3.92;;
29838;SDS011;18669;53.356;-1.464;2023-01-19T15:05:35;10.20;;;3.70;;
29838;SDS011;18669;53.356;-1.464;2023-01-19T15:08:02;8.75;;;4.28;;
29838;SDS011;18669;53.356;-1.464;2023-01-19T15:10:29;13.00;;;5.80;;
29838;SDS011;18669;53.356;-1.464;2023-01-19T15:12:55;5.75;;;3.80;;
29838;SDS011;18669;53.356;-1.464;2023-01-19T15:15:24;4.85;;;2.97;;
29838;SDS011;18669;53.356;-1.464;2023-01-19T15:17:54;7.80;;;3.42;;
29838;SDS011;18669;53.356;-1.464;2023-01-19T15:22:46;8.00;;;2.70;;
29838;SDS011;18669;53.356;-1.464;2023-01-19T15:25:15;7.72;;;2.50;;
29838;SDS011;18669;53.356;-1.464;2023-01-19T15:27:44;4.72;;;2.53;;
29838;SDS011;18669;53.356;-1.464;2023-01-19T15:30:15;2.88;;;1.63;;
29838;SDS011;18669;53.356;-1.464;2023-01-19T15:32:44;3.75;;;1.77;;
29838;SDS011;18669;53.356;-1.464;2023-01-19T15:35:17;5.53;;;2.55;;
29838;SDS011;18669;53.356;-1.464;2023-01-19T15:37:46;7.72;;;2.45;;
29838;SDS011;18669;53.356;-1.464;2023-01-19T15:40:13;7.57;;;2.25;;
29838;SDS011;18669;53.356;-1.464;2023-01-19T15:42:40;4.07;;;1.75;;
29838;SDS011;18669;53.356;-1.464;2023-01-19T15:48:03;2.88;;;1.70;;
29838;SDS011;18669;53.356;-1.464;2023-01-19T15:50:47;8.82;;;1.80;;
29838;SDS011;18669;53.356;-1.464;2023-01-19T15:53:15;4.97;;;1.58;;
29838;SDS011;18669;53.356;-1.464;2023-01-19T15:55:48;3.60;;;1.85;;
29838;SDS011;18669;53.356;-1.464;2023-01-19T15:58:16;5.30;;;1.98;;
29838;SDS011;18669;53.356;-1.464;2023-01-19T16:00:45;4.95;;;2.40;;
29838;SDS011;18669;53.356;-1.464;2023-01-19T16:03:19;2.95;;;2.05;;
29838;SDS011;18669;53.356;-1.464;2023-01-19T16:05:45;3.67;;;1.48;;
29838;SDS011;18669;53.356;-1.464;2023-01-19T16:08:12;10.25;;;1.70;;
29838;SDS011;18669;53.356;-1.464;2023-01-19T16:10:39;1.75;;;1.10;;
29838;SDS011;18669;53.356;-1.464;2023-01-19T16:13:06;3.53;;;1.73;;
29838;SDS011;18669;53.356;-1.464;2023-01-19T16:15:34;8.50;;;1.60;;
29838;SDS011;18669;53.356;-1.464;2023-01-19T16:18:01;2.28;;;1.08;;
29838;SDS011;18669;53.356;-1.464;2023-01-19T16:20:29;6.45;;;1.90;;
29838;SDS011;18669;53.356;-1.464;2023-01-19T16:22:55;4.85;;;1.70;;
29838;SDS011;18669;53.356;-1.464;2023-01-19T16:25:21;2.80;;;1.60;;
29838;SDS011;18669;53.356;-1.464;2023-01-19T16:30:15;5.47;;;1.80;;
29838;SDS011;18669;53.356;-1.464;2023-01-19T16:32:44;10.13;;;1.70;;
29838;SDS011;18669;53.356;-1.464;2023-01-19T16:35:11;3.05;;;1.33;;
29838;SDS011;18669;53.356;-1.464;2023-01-19T16:37:40;3.45;;;1.13;;
29838;SDS011;18669;53.356;-1.464;2023-01-19T16:40:10;1.58;;;0.93;;
29838;SDS011;18669;53.356;-1.464;2023-01-19T16:42:36;2.30;;;1.30;;
29838;SDS011;18669;53.356;-1.464;2023-01-19T16:45:03;5.95;;;1.58;;
29838;SDS011;18669;53.356;-1.464;2023-01-19T16:47:30;6.15;;;1.08;;
29838;SDS011;18669;53.356;-1.464;2023-01-19T16:49:56;7.78;;;1.90;;
29838;SDS011;18669;53.356;-1.464;2023-01-19T16:52:22;7.40;;;1.70;;
29838;SDS011;18669;53.356;-1.464;2023-01-19T16:54:48;7.60;;;1.77;;
29838;SDS011;18669;53.356;-1.464;2023-01-19T16:57:19;3.35;;;1.70;;